Pagina principale
METAR-TAF:

METAR-TAF

Aeroporti :

Aeroporto di Decimomannu

Decimomannu, Italia

latitudine: 39-21N, longitudine: 008-58E, altezza: 29 m

Osservazione

Il bollettino è stato emesso 1 ora e 33 minuti fa, alle 18:55 UTC
Vento 7 kt da sud/sud-est
Temperature 25°C
Umidità 83%
Pressione 1017 hPa
Visibilità 10 km o più
nessuna nube inferiore a 1500 m e nessun cumulonembo

METAR: LIED 161855Z 15007KT CAVOK 25/22 Q1017 RMK SKC VIS MIN 9999 WIND THR35 15007KT WIND THR17 /////KT BLU

Ora: 22:28 (20:28 UTC)

Previsione

Il bollettino è stato emesso 3 ore e 28 minuti fa, alle 17:00 UTC
Previsione valida dal 16 alle 18 UTC al 17 alle 03 UTC
Vento 12 kt da sud/sud-est
Visibilità 10 km o più
nessuna nube inferiore a 1500 m e nessun cumulonembo
Evoluzione graduale
dal 16 alle 21 UTC al 16 alle 22 UTC
Vento 3 kt da nord-est

TAF: LIED 161700Z 1618/1703 15012KT CAVOK BECMG 1621/1622 04003KT

Osservazioni e previsioni meteorologiche di più di 4000 aeroporti (messaggi METAR e TAF).

Le stazioni disponibili sono rappresentate dai dischi gialli e rossi sulla carta.

Puntare il mouse per vedere il nome della stazione.

Clicca sopra per visualizzare le osservazioni e previsioni meteorologiche.

Per cambiare la mappa : fare clic sui pulsanti verdi con una croce nera per ingrandire, il pulsante verde con un trattino per diminuire, o sulla freccia verde per le mappe adiacenti.


METAR-TAF: